createdAt,value
2022-10-30T00:00:55.839Z,16.80
2022-10-30T00:03:23.893Z,16.80
2022-10-30T00:05:52.143Z,16.70
2022-10-30T00:08:21.677Z,16.70
2022-10-30T00:10:50.452Z,16.60
2022-10-30T00:13:19.068Z,16.60
2022-10-30T00:15:51.602Z,16.60
2022-10-30T00:18:18.865Z,16.50
2022-10-30T00:20:45.843Z,16.40
2022-10-30T00:23:12.750Z,16.50
2022-10-30T00:25:39.648Z,16.50
2022-10-30T00:28:07.002Z,16.40
2022-10-30T00:30:34.973Z,16.30
2022-10-30T00:33:02.256Z,16.40
2022-10-30T00:35:29.503Z,16.40
2022-10-30T00:37:56.768Z,16.30
2022-10-30T00:40:24.569Z,16.30
2022-10-30T00:42:52.089Z,16.30
2022-10-30T00:45:19.220Z,16.30
2022-10-30T00:48:00.996Z,16.10
2022-10-30T00:50:34.239Z,16.20
2022-10-30T00:53:07.401Z,16.20
2022-10-30T00:55:44.139Z,16.10
2022-10-30T00:58:16.349Z,16.10
2022-10-30T01:00:48.193Z,16.20
2022-10-30T01:03:16.127Z,16.20
2022-10-30T01:05:47.013Z,16.30
2022-10-30T01:08:14.201Z,16.30
2022-10-30T01:10:41.247Z,16.40
2022-10-30T01:13:08.324Z,16.20
2022-10-30T01:15:40.564Z,16.30
2022-10-30T01:18:26.248Z,16.40
2022-10-30T01:21:11.917Z,16.30
2022-10-30T01:24:03.537Z,16.20
2022-10-30T01:27:23.617Z,16.10
2022-10-30T01:30:24.880Z,16.10
2022-10-30T01:33:00.726Z,16.30
2022-10-30T01:35:46.681Z,16.20
2022-10-30T01:38:42.353Z,16.00
2022-10-30T01:41:09.216Z,15.90
2022-10-30T01:43:37.645Z,15.80
2022-10-30T01:46:26.022Z,15.70
2022-10-30T01:49:20.205Z,15.70
2022-10-30T01:51:52.692Z,15.70
2022-10-30T01:54:37.901Z,15.70
2022-10-30T01:57:24.955Z,15.60
2022-10-30T02:00:03.095Z,15.60
2022-10-30T02:02:33.170Z,15.60
2022-10-30T02:05:01.139Z,15.60
2022-10-30T02:07:27.998Z,15.60
2022-10-30T02:09:55.968Z,15.70
2022-10-30T02:12:24.277Z,15.60
2022-10-30T02:14:55.080Z,15.50
2022-10-30T02:17:22.751Z,15.50
2022-10-30T02:19:49.954Z,15.50
2022-10-30T02:22:18.330Z,15.50
2022-10-30T02:24:45.793Z,15.50
2022-10-30T02:27:12.699Z,15.50
2022-10-30T02:29:39.512Z,15.50
2022-10-30T02:32:06.593Z,15.50
2022-10-30T02:34:33.692Z,15.50
2022-10-30T02:37:01.453Z,15.50
2022-10-30T02:39:28.229Z,15.60
2022-10-30T02:41:55.378Z,15.60
2022-10-30T02:44:22.241Z,15.50
2022-10-30T02:46:49.050Z,15.70
2022-10-30T02:49:15.769Z,15.60
2022-10-30T02:51:42.560Z,15.60
2022-10-30T02:54:09.618Z,15.60
2022-10-30T02:56:36.416Z,15.70
2022-10-30T02:59:03.287Z,15.70
2022-10-30T03:01:30.526Z,15.80
2022-10-30T03:03:57.779Z,15.80
2022-10-30T03:06:24.990Z,15.80
2022-10-30T03:08:53.337Z,15.80
2022-10-30T03:11:21.137Z,15.80
2022-10-30T03:13:49.344Z,15.80
2022-10-30T03:16:19.456Z,15.80
2022-10-30T03:18:47.467Z,15.90
2022-10-30T03:21:17.317Z,15.90
2022-10-30T03:23:44.241Z,15.90
2022-10-30T03:26:11.230Z,15.90
2022-10-30T03:28:38.603Z,15.80
2022-10-30T03:31:08.771Z,15.80
2022-10-30T03:33:37.377Z,15.80
2022-10-30T03:36:06.541Z,15.80
2022-10-30T03:38:34.023Z,15.80
2022-10-30T03:41:01.600Z,15.80
2022-10-30T03:43:28.637Z,15.80
2022-10-30T03:45:56.929Z,15.70
2022-10-30T03:48:26.583Z,15.70
2022-10-30T03:50:58.733Z,15.60
2022-10-30T03:53:26.509Z,15.70
2022-10-30T03:55:57.072Z,15.80
2022-10-30T03:58:23.846Z,15.80
2022-10-30T04:00:50.770Z,15.70
2022-10-30T04:03:17.674Z,15.70
2022-10-30T04:05:44.545Z,15.70
2022-10-30T04:08:13.400Z,15.80
2022-10-30T04:10:44.952Z,15.80
2022-10-30T04:13:14.701Z,15.60
2022-10-30T04:15:42.420Z,15.70
2022-10-30T04:18:13.986Z,15.50
2022-10-30T04:20:41.031Z,15.60
2022-10-30T04:23:12.535Z,15.40
2022-10-30T04:25:39.304Z,15.50
2022-10-30T04:28:06.460Z,15.40
2022-10-30T04:30:35.440Z,15.30
2022-10-30T04:33:04.206Z,15.40
2022-10-30T04:35:34.115Z,15.30
2022-10-30T04:38:03.010Z,15.40
2022-10-30T04:40:33.719Z,15.30
2022-10-30T04:43:01.406Z,15.30
2022-10-30T04:45:28.467Z,15.30
2022-10-30T04:48:02.796Z,15.20
2022-10-30T04:50:30.912Z,15.30
2022-10-30T04:53:06.630Z,15.30
2022-10-30T04:55:33.941Z,15.20
2022-10-30T04:58:03.128Z,15.20
2022-10-30T05:00:30.876Z,15.30
2022-10-30T05:03:02.128Z,15.20
2022-10-30T05:05:32.672Z,15.10
2022-10-30T05:08:00.181Z,15.10
2022-10-30T05:10:27.689Z,15.10
2022-10-30T05:12:54.651Z,15.10
2022-10-30T05:15:21.985Z,15.20
2022-10-30T05:17:53.784Z,15.10
2022-10-30T05:20:21.733Z,15.10
2022-10-30T05:22:56.677Z,15.10
2022-10-30T05:25:24.270Z,15.10
2022-10-30T05:27:57.300Z,15.10
2022-10-30T05:30:24.738Z,15.10
2022-10-30T05:32:51.691Z,15.10
2022-10-30T05:35:18.716Z,15.10
2022-10-30T05:37:45.852Z,15.10
2022-10-30T05:40:12.646Z,15.10
2022-10-30T05:42:48.224Z,15.20
2022-10-30T05:45:16.217Z,15.20
2022-10-30T05:47:43.213Z,15.20
2022-10-30T05:50:12.447Z,15.10
2022-10-30T05:52:39.450Z,15.20
2022-10-30T05:55:06.930Z,15.10
2022-10-30T05:57:34.205Z,15.10
2022-10-30T06:00:01.047Z,15.20
2022-10-30T06:02:28.715Z,15.20
2022-10-30T06:04:56.052Z,15.20
2022-10-30T06:07:22.770Z,15.20
2022-10-30T06:09:49.729Z,15.20
2022-10-30T06:12:16.975Z,15.20
2022-10-30T06:14:44.041Z,15.10
2022-10-30T06:17:11.032Z,15.20
2022-10-30T06:19:37.892Z,15.10
2022-10-30T06:22:05.364Z,15.10
2022-10-30T06:24:32.354Z,15.10
2022-10-30T06:26:59.381Z,15.20
2022-10-30T06:29:26.445Z,15.10
2022-10-30T06:31:53.394Z,15.30
2022-10-30T06:34:20.391Z,15.20
2022-10-30T06:36:47.523Z,15.20
2022-10-30T06:39:14.721Z,15.00
2022-10-30T06:41:41.471Z,15.10
2022-10-30T06:44:08.291Z,15.10
2022-10-30T06:46:35.059Z,15.10
2022-10-30T06:49:01.898Z,15.10
2022-10-30T06:51:28.967Z,15.10
2022-10-30T06:53:55.744Z,15.10
2022-10-30T06:56:22.743Z,15.10
2022-10-30T06:58:50.671Z,15.10
2022-10-30T07:01:18.001Z,15.00
2022-10-30T07:03:45.236Z,15.10
2022-10-30T07:06:12.174Z,15.10
2022-10-30T07:08:38.956Z,15.20
2022-10-30T07:11:06.082Z,15.10
2022-10-30T07:13:33.249Z,15.00
2022-10-30T07:16:00.148Z,15.10
2022-10-30T07:18:27.118Z,15.10
2022-10-30T07:20:58.058Z,15.10
2022-10-30T07:23:25.118Z,15.10
2022-10-30T07:25:52.049Z,15.10
2022-10-30T07:28:18.889Z,15.10
2022-10-30T07:30:45.921Z,15.20
2022-10-30T07:33:13.021Z,15.20
2022-10-30T07:35:39.937Z,15.20
2022-10-30T07:38:11.974Z,15.20
2022-10-30T07:40:39.240Z,15.30
2022-10-30T07:43:06.455Z,15.40
2022-10-30T07:45:33.832Z,15.60
2022-10-30T07:48:01.474Z,15.70
2022-10-30T07:50:29.104Z,15.60
2022-10-30T07:52:56.245Z,15.70
2022-10-30T07:55:23.409Z,15.70
2022-10-30T07:57:50.746Z,15.80
2022-10-30T08:00:17.955Z,15.80
2022-10-30T08:02:50.047Z,16.00
2022-10-30T08:05:21.014Z,16.10
2022-10-30T08:07:50.177Z,16.20
2022-10-30T08:10:17.538Z,16.30
2022-10-30T08:12:45.961Z,16.40
2022-10-30T08:15:12.723Z,16.50
2022-10-30T08:17:53.274Z,16.50
2022-10-30T08:20:22.935Z,16.60
2022-10-30T08:22:52.188Z,16.60
2022-10-30T08:25:21.837Z,16.70
2022-10-30T08:28:01.860Z,16.80
2022-10-30T08:30:34.462Z,16.80
2022-10-30T08:33:06.989Z,16.90
2022-10-30T08:38:05.977Z,17.20
2022-10-30T08:40:32.837Z,17.30
2022-10-30T08:42:59.993Z,17.60
2022-10-30T08:45:30.838Z,17.90
2022-10-30T08:48:06.461Z,17.80
2022-10-30T08:50:34.696Z,17.90
2022-10-30T08:53:03.494Z,18.10
2022-10-30T08:55:31.867Z,18.30
2022-10-30T08:58:04.251Z,18.50
2022-10-30T09:00:34.925Z,18.80
2022-10-30T09:03:03.093Z,19.00
2022-10-30T09:05:30.450Z,19.10
2022-10-30T09:08:02.328Z,19.50
2022-10-30T09:10:30.144Z,19.50
2022-10-30T09:13:02.652Z,19.90
2022-10-30T09:15:30.069Z,20.10
2022-10-30T09:18:04.377Z,20.30
2022-10-30T09:20:31.959Z,20.20
2022-10-30T09:22:59.297Z,20.00
2022-10-30T09:25:26.804Z,20.00
2022-10-30T09:27:53.992Z,20.10
2022-10-30T09:30:21.289Z,19.80
2022-10-30T09:33:04.526Z,19.70
2022-10-30T09:35:33.027Z,19.60
2022-10-30T09:38:00.353Z,19.60
2022-10-30T09:40:46.303Z,19.40
2022-10-30T09:43:53.863Z,19.30
2022-10-30T09:47:04.069Z,19.30
2022-10-30T09:49:47.374Z,19.20
2022-10-30T09:52:14.321Z,19.30
2022-10-30T09:54:44.201Z,19.40
2022-10-30T09:57:14.150Z,19.30
2022-10-30T10:00:00.623Z,19.40
2022-10-30T10:02:50.803Z,19.70
2022-10-30T10:05:38.633Z,19.70
2022-10-30T10:08:10.201Z,19.40
2022-10-30T10:10:42.934Z,19.40
2022-10-30T10:13:38.743Z,19.40
2022-10-30T10:16:15.105Z,19.70
2022-10-30T10:19:05.035Z,19.70
2022-10-30T10:21:36.920Z,19.50
2022-10-30T10:24:18.205Z,19.60
2022-10-30T10:26:56.736Z,19.70
2022-10-30T10:29:47.135Z,19.90
2022-10-30T10:32:29.127Z,19.30
2022-10-30T10:35:31.375Z,19.70
2022-10-30T10:38:21.876Z,19.80
2022-10-30T10:41:00.810Z,19.70
2022-10-30T10:43:58.314Z,20.00
2022-10-30T10:47:00.651Z,19.80
2022-10-30T10:49:35.911Z,19.60
2022-10-30T10:52:19.221Z,19.40
2022-10-30T10:54:58.273Z,19.80
2022-10-30T10:57:37.980Z,19.80
2022-10-30T11:00:17.707Z,20.10
2022-10-30T11:02:59.391Z,20.30
2022-10-30T11:05:57.420Z,20.50
2022-10-30T11:08:28.445Z,20.10
2022-10-30T11:11:03.534Z,20.40
2022-10-30T11:13:36.151Z,20.40
2022-10-30T11:16:36.750Z,20.70
2022-10-30T11:19:08.264Z,21.10
2022-10-30T11:21:54.475Z,21.40
2022-10-30T11:24:35.653Z,21.50
2022-10-30T11:27:26.219Z,21.80
2022-10-30T11:29:57.452Z,22.00
2022-10-30T11:32:28.590Z,22.00
2022-10-30T11:35:07.976Z,22.40
2022-10-30T11:37:37.001Z,21.90
2022-10-30T11:40:06.468Z,21.80
2022-10-30T11:42:34.572Z,22.20
2022-10-30T11:45:02.912Z,22.50
2022-10-30T11:47:36.234Z,22.30
2022-10-30T11:50:07.993Z,22.40
2022-10-30T11:52:41.885Z,23.00
2022-10-30T11:55:29.176Z,23.50
2022-10-30T11:57:58.572Z,23.30
2022-10-30T12:00:34.753Z,22.90
2022-10-30T12:03:03.629Z,23.10
2022-10-30T12:05:44.854Z,23.30
2022-10-30T12:08:15.291Z,23.20
2022-10-30T12:10:58.806Z,22.70
2022-10-30T12:13:28.160Z,22.80
2022-10-30T12:16:13.032Z,22.90
2022-10-30T12:18:40.486Z,23.30
2022-10-30T12:21:07.778Z,23.70
2022-10-30T12:23:35.576Z,23.40
2022-10-30T12:26:11.122Z,23.60
2022-10-30T12:28:57.382Z,23.40
2022-10-30T12:31:36.098Z,23.40
2022-10-30T12:34:18.119Z,23.40
2022-10-30T12:36:53.827Z,23.50
2022-10-30T12:39:37.676Z,23.60
2022-10-30T12:42:12.050Z,23.40
2022-10-30T12:44:49.848Z,23.10
2022-10-30T12:47:29.238Z,22.60
2022-10-30T12:52:53.965Z,22.30
2022-10-30T12:55:26.736Z,21.90
2022-10-30T12:58:13.904Z,21.40
2022-10-30T13:00:56.183Z,21.30
2022-10-30T13:03:40.070Z,21.20
2022-10-30T13:06:12.748Z,21.40
2022-10-30T13:09:06.251Z,21.50
2022-10-30T13:11:38.660Z,21.40
2022-10-30T13:14:11.623Z,21.40
2022-10-30T13:16:38.575Z,21.40
2022-10-30T13:19:10.101Z,21.40
2022-10-30T13:21:53.119Z,21.30
2022-10-30T13:24:35.081Z,21.30
2022-10-30T13:27:04.860Z,21.00
2022-10-30T13:29:46.478Z,21.00
2022-10-30T13:32:37.657Z,20.80
2022-10-30T13:35:21.172Z,20.70
2022-10-30T13:38:12.057Z,20.10
2022-10-30T13:40:44.417Z,19.80
2022-10-30T13:43:29.499Z,19.90
2022-10-30T13:46:14.806Z,19.80
2022-10-30T13:48:50.695Z,19.90
2022-10-30T13:51:51.228Z,19.40
2022-10-30T13:54:42.784Z,19.50
2022-10-30T13:57:37.779Z,19.60
2022-10-30T14:00:20.018Z,19.60
2022-10-30T14:03:03.266Z,19.40
2022-10-30T14:05:51.374Z,19.50
2022-10-30T14:08:39.709Z,19.20
2022-10-30T14:11:11.156Z,19.20
2022-10-30T14:13:57.744Z,19.30
2022-10-30T14:16:33.889Z,19.30
2022-10-30T14:19:11.869Z,19.30
2022-10-30T14:21:53.675Z,19.30
2022-10-30T14:27:04.155Z,19.80
2022-10-30T14:29:36.832Z,20.00
2022-10-30T14:32:23.998Z,20.00
2022-10-30T14:34:54.760Z,20.20
2022-10-30T14:37:28.502Z,20.30
2022-10-30T14:39:56.938Z,20.20
2022-10-30T14:42:32.518Z,20.30
2022-10-30T14:45:14.663Z,20.20
2022-10-30T14:48:10.915Z,20.10
2022-10-30T14:51:06.049Z,20.00
2022-10-30T14:53:36.455Z,20.00
2022-10-30T14:56:09.898Z,19.90
2022-10-30T14:58:38.217Z,19.80
2022-10-30T15:01:23.531Z,19.70
2022-10-30T15:03:59.268Z,19.70
2022-10-30T15:06:52.798Z,19.70
2022-10-30T15:09:24.077Z,19.70
2022-10-30T15:12:20.706Z,19.60
2022-10-30T15:14:58.625Z,19.70
2022-10-30T15:17:37.519Z,19.70
2022-10-30T15:20:14.094Z,19.90
2022-10-30T15:22:41.949Z,19.70
2022-10-30T15:25:23.964Z,19.50
2022-10-30T15:27:58.178Z,19.60
2022-10-30T15:30:27.062Z,19.50
2022-10-30T15:32:54.599Z,19.50
2022-10-30T15:35:27.173Z,19.60
2022-10-30T15:38:09.645Z,19.70
2022-10-30T15:40:39.096Z,19.60
2022-10-30T15:43:11.377Z,19.50
2022-10-30T15:45:45.878Z,19.40
2022-10-30T15:48:28.848Z,19.50
2022-10-30T15:51:22.369Z,19.40
2022-10-30T15:53:54.406Z,19.50
2022-10-30T15:56:30.083Z,19.30
2022-10-30T15:59:18.569Z,19.40
2022-10-30T16:01:49.329Z,19.30
2022-10-30T16:04:23.051Z,19.00
2022-10-30T16:06:58.668Z,19.10
2022-10-30T16:09:27.944Z,19.10
2022-10-30T16:11:58.904Z,18.90
2022-10-30T16:14:32.754Z,19.00
2022-10-30T16:17:00.920Z,19.10
2022-10-30T16:19:30.730Z,18.80
2022-10-30T16:21:59.394Z,18.70
2022-10-30T16:24:32.857Z,18.40
2022-10-30T16:27:14.180Z,18.40
2022-10-30T16:29:42.354Z,18.70
2022-10-30T16:34:41.313Z,18.60
2022-10-30T16:37:36.137Z,18.50
2022-10-30T16:40:11.177Z,18.20
2022-10-30T16:42:38.807Z,18.20
2022-10-30T16:45:31.799Z,18.20
2022-10-30T16:48:08.367Z,18.20
2022-10-30T16:50:37.917Z,18.30
2022-10-30T16:53:06.627Z,18.20
2022-10-30T16:55:35.998Z,18.40
2022-10-30T16:58:03.169Z,18.30
2022-10-30T17:00:35.425Z,18.30
2022-10-30T17:03:10.367Z,18.40
2022-10-30T17:05:38.703Z,18.50
2022-10-30T17:08:42.525Z,18.70
2022-10-30T17:11:20.764Z,18.40
2022-10-30T17:13:58.217Z,18.30
2022-10-30T17:16:26.592Z,18.20
2022-10-30T17:18:56.271Z,18.40
2022-10-30T17:21:39.912Z,18.30
2022-10-30T17:24:17.180Z,18.30
2022-10-30T17:27:01.806Z,17.90
2022-10-30T17:29:37.996Z,18.20
2022-10-30T17:32:06.564Z,18.20
2022-10-30T17:34:39.591Z,18.00
2022-10-30T17:37:06.584Z,18.00
2022-10-30T17:39:33.514Z,18.00
2022-10-30T17:42:00.619Z,18.10
2022-10-30T17:44:34.461Z,18.20
2022-10-30T17:47:15.239Z,18.00
2022-10-30T17:49:43.197Z,17.70
2022-10-30T17:52:14.885Z,17.90
2022-10-30T17:54:43.045Z,18.00
2022-10-30T17:57:11.883Z,18.10
2022-10-30T17:59:39.403Z,18.20
2022-10-30T18:02:15.599Z,18.20
2022-10-30T18:04:42.970Z,18.30
2022-10-30T18:07:11.106Z,18.00
2022-10-30T18:09:38.590Z,18.00
2022-10-30T18:12:07.406Z,18.10
2022-10-30T18:14:34.192Z,17.90
2022-10-30T18:17:00.983Z,17.70
2022-10-30T18:19:27.969Z,17.70
2022-10-30T18:21:54.944Z,17.80
2022-10-30T18:24:22.013Z,17.90
2022-10-30T18:26:49.251Z,17.60
2022-10-30T18:29:16.188Z,17.60
2022-10-30T18:31:43.321Z,17.60
2022-10-30T18:34:22.085Z,17.80
2022-10-30T18:36:52.436Z,17.80
2022-10-30T18:39:19.459Z,17.70
2022-10-30T18:41:47.691Z,17.60
2022-10-30T18:44:18.803Z,17.40
2022-10-30T18:46:46.929Z,17.70
2022-10-30T18:49:14.023Z,17.60
2022-10-30T18:51:40.984Z,17.30
2022-10-30T18:54:18.817Z,17.30
2022-10-30T18:56:45.787Z,17.50
2022-10-30T18:59:12.538Z,17.20
2022-10-30T19:01:40.403Z,17.10
2022-10-30T19:04:11.169Z,17.00
2022-10-30T19:06:38.998Z,17.10
2022-10-30T19:09:06.507Z,17.00
2022-10-30T19:11:33.893Z,17.00
2022-10-30T19:14:00.862Z,17.20
2022-10-30T19:16:28.362Z,17.40
2022-10-30T19:18:55.220Z,17.60
2022-10-30T19:21:25.714Z,17.80
2022-10-30T19:23:54.296Z,17.70
2022-10-30T19:26:21.125Z,17.60
2022-10-30T19:28:47.945Z,17.60
2022-10-30T19:31:17.218Z,17.70
2022-10-30T19:33:45.606Z,17.50
2022-10-30T19:36:36.360Z,17.30
2022-10-30T19:39:10.175Z,17.20
2022-10-30T19:41:38.890Z,17.10
2022-10-30T19:44:06.720Z,17.00
2022-10-30T19:46:37.424Z,17.00
2022-10-30T19:49:35.089Z,16.70
2022-10-30T19:52:02.851Z,16.60
2022-10-30T19:54:30.026Z,16.70
2022-10-30T19:56:56.987Z,16.80
2022-10-30T19:59:25.806Z,16.80
2022-10-30T20:01:53.196Z,16.80
2022-10-30T20:04:20.807Z,17.00
2022-10-30T20:06:47.890Z,17.00
2022-10-30T20:09:14.829Z,17.10
2022-10-30T20:11:41.796Z,17.10
2022-10-30T20:14:08.683Z,17.10
2022-10-30T20:16:35.475Z,17.10
2022-10-30T20:19:02.289Z,16.90
2022-10-30T20:21:31.211Z,17.00
2022-10-30T20:23:58.500Z,16.90
2022-10-30T20:26:28.221Z,16.70
2022-10-30T20:28:56.138Z,16.50
2022-10-30T20:31:23.457Z,16.30
2022-10-30T20:33:50.694Z,16.30
2022-10-30T20:36:18.270Z,16.20
2022-10-30T20:38:45.111Z,16.20
2022-10-30T20:41:22.052Z,16.10
2022-10-30T20:43:50.462Z,16.00
2022-10-30T20:46:18.423Z,16.10
2022-10-30T20:48:46.270Z,16.10
2022-10-30T20:51:13.606Z,16.10
2022-10-30T20:53:44.218Z,16.10
2022-10-30T20:56:11.802Z,16.20
2022-10-30T20:58:39.446Z,16.50
2022-10-30T21:01:06.516Z,16.60
2022-10-30T21:03:34.148Z,16.40
2022-10-30T21:06:02.147Z,16.20
2022-10-30T21:08:31.829Z,16.30
2022-10-30T21:11:03.931Z,16.20
2022-10-30T21:13:32.999Z,16.30
2022-10-30T21:16:02.347Z,16.20
2022-10-30T21:18:29.881Z,16.20
2022-10-30T21:21:01.607Z,16.20
2022-10-30T21:23:28.757Z,15.90
2022-10-30T21:26:06.628Z,15.90
2022-10-30T21:28:33.718Z,15.90
2022-10-30T21:31:05.527Z,16.10
2022-10-30T21:33:34.394Z,15.80
2022-10-30T21:36:12.655Z,15.70
2022-10-30T21:38:45.083Z,15.70
2022-10-30T21:41:15.409Z,15.90
2022-10-30T21:43:43.371Z,15.90
2022-10-30T21:46:12.605Z,16.00
2022-10-30T21:48:40.259Z,16.00
2022-10-30T21:51:12.957Z,16.20
2022-10-30T21:53:41.020Z,16.20
2022-10-30T21:56:10.779Z,16.10
2022-10-30T21:58:38.179Z,16.10
2022-10-30T22:01:06.925Z,16.10
2022-10-30T22:03:35.156Z,16.20
2022-10-30T22:06:13.939Z,16.20
2022-10-30T22:08:44.838Z,16.20
2022-10-30T22:11:12.211Z,15.80
2022-10-30T22:13:39.686Z,15.80
2022-10-30T22:16:10.177Z,15.90
2022-10-30T22:18:37.575Z,15.90
2022-10-30T22:21:10.285Z,16.00
2022-10-30T22:23:38.376Z,16.10
2022-10-30T22:26:08.497Z,16.00
2022-10-30T22:28:36.079Z,16.00
2022-10-30T22:31:11.581Z,16.00
2022-10-30T22:33:39.118Z,16.00
2022-10-30T22:36:15.119Z,15.90
2022-10-30T22:38:42.211Z,15.90
2022-10-30T22:41:18.713Z,15.80
2022-10-30T22:43:47.059Z,15.70
2022-10-30T22:46:15.917Z,16.00
2022-10-30T22:48:43.248Z,15.90
2022-10-30T22:51:15.070Z,15.70
2022-10-30T22:53:44.110Z,15.60
2022-10-30T22:56:19.363Z,15.60
2022-10-30T22:58:48.048Z,15.60
2022-10-30T23:01:23.984Z,15.70
2022-10-30T23:03:53.564Z,15.60
2022-10-30T23:06:21.316Z,15.60
2022-10-30T23:08:48.585Z,16.00
2022-10-30T23:11:16.277Z,16.10
2022-10-30T23:13:45.409Z,16.20
2022-10-30T23:16:21.795Z,16.20
2022-10-30T23:18:49.492Z,16.10
2022-10-30T23:21:19.560Z,16.10
2022-10-30T23:23:46.629Z,16.10
2022-10-30T23:26:16.576Z,16.10
2022-10-30T23:28:44.180Z,16.00
2022-10-30T23:31:16.629Z,16.00
2022-10-30T23:33:45.882Z,15.90
2022-10-30T23:36:12.947Z,15.60
2022-10-30T23:38:39.721Z,15.60
2022-10-30T23:41:06.653Z,15.30
2022-10-30T23:43:33.684Z,15.30
2022-10-30T23:46:00.479Z,15.20
2022-10-30T23:48:27.592Z,15.00
2022-10-30T23:50:54.359Z,15.00
2022-10-30T23:53:21.167Z,14.80
2022-10-30T23:55:54.675Z,14.70
2022-10-30T23:58:21.837Z,14.60
